Amarillo, TX (79174)

4:57 PM CDT on September 18, 2014 (GMT -0500)
Oliver-Eakle | Change Station
CLOSE
Current Station
Personal Weather Station
Location: Amarillo, TX
Elevation: 3678 ft
Nearby Weather Stations
Active Advisory: Flash Flood Watch

Elev 3678 ft 35.19 °N, 101.84 °W | Updated 5 seconds ago

Overcast
Overcast
71.2 °F
Feels Like 73 °F
N
5.9
Wind Variable Wind from SE
Gusts 10.4 mph

Today
High -- | Low -- °F
--% Chance of Precip.
Yesterday
High -- | Low -- °F
Precip. -- in
7:32 AM 7:49 PM
Waning Crescent, 24% visible
Pressure 30.01 in
Visibility 10.0 miles
Clouds Scattered Clouds 2700 ft
Heat Index 73 °F
Dew Point 62 °F
Humidity 74%
Rainfall 0.00 in
Snow Depth Not available.
UV 4 out of 12
Pollen 8.40 out of 12
Air Quality Not available.
Flu Activity Not available.
SPECI KAMA 182136Z 15013KT 10SM SCT027 23/16 A3001 RMK AO2 T02280161

More Conditions Fewer Conditions

Pressure 30.01 in
Visibility 10.0 miles
Clouds Scattered Clouds 2700 ft
Heat Index 73 °F
Dew Point 62 °F
Humidity 74%
Rainfall 0.00 in
Snow Depth Not available.
UV 4 out of 12
Pollen 8.40 out of 12
Air Quality Not available.
Flu Activity Not available.
SPECI KAMA 182136Z 15013KT 10SM SCT027 23/16 A3001 RMK AO2 T02280161

More Conditions Fewer Conditions

10-Day Weather Forecast

Almanac

Astronomy

Sep. 18, 2014 Rise Set
Actual Time 7:32 AM CDT 7:49 PM CDT
Civil Twilight 7:07 AM CDT 8:15 PM CDT
Nautical Twilight 6:37 AM CDT 8:44 PM CDT
Astronomical Twilight 6:07 AM CDT 9:14 PM CDT
Moon 2:34 AM CDT 4:34 PM CDT
Length of Visible Light 13h 08m
Length of Day
12h 17m
Tomorrow will be 2m 13s shorter.
Waning Crescent, 24% of the Moon is Illuminated
Today
Waning Crescent
Sep 24
New
Oct 1
First Quarter
Oct 8
Full
Oct 15
Last Quarter

Today's Extremes

State Highs State Lows

Community

WunderPhotos

Upload Photos

1,754,452 photos uploaded!

WunderBlogs® & News

Nearby

Snow Depth

Station Depth Elevation
No new snow has been reported.

Earthquake Activity

City Distance Mag. Time & Date
No recent earthquake activity has been reported nearby.
Minimum magnitude displayed is 2.5.

Coastal Water Temperatures

Place Temperature
No Stations Reporting

Nearby Weather Stations